sensor_id;sensor_type;location;lat;lon;timestamp;P1;durP1;ratioP1;P2;durP2;ratioP2
39044;SDS011;52192;52.002;5.956;2023-07-29T00:01:31;2.65;;;1.40;;
39044;SDS011;52192;52.002;5.956;2023-07-29T00:03:58;1.30;;;1.20;;
39044;SDS011;52192;52.002;5.956;2023-07-29T00:06:24;1.52;;;1.30;;
39044;SDS011;52192;52.002;5.956;2023-07-29T00:08:50;1.98;;;1.52;;
39044;SDS011;52192;52.002;5.956;2023-07-29T00:11:15;1.95;;;1.00;;
39044;SDS011;52192;52.002;5.956;2023-07-29T00:13:41;1.27;;;1.00;;
39044;SDS011;52192;52.002;5.956;2023-07-29T00:16:07;2.85;;;1.20;;
39044;SDS011;52192;52.002;5.956;2023-07-29T00:18:32;1.85;;;1.30;;
39044;SDS011;52192;52.002;5.956;2023-07-29T00:20:58;1.48;;;1.00;;
39044;SDS011;52192;52.002;5.956;2023-07-29T00:23:24;2.20;;;1.40;;
39044;SDS011;52192;52.002;5.956;2023-07-29T00:25:49;1.52;;;1.15;;
39044;SDS011;52192;52.002;5.956;2023-07-29T00:28:15;2.33;;;1.25;;
39044;SDS011;52192;52.002;5.956;2023-07-29T00:30:41;1.33;;;1.10;;
39044;SDS011;52192;52.002;5.956;2023-07-29T00:33:07;1.52;;;1.10;;
39044;SDS011;52192;52.002;5.956;2023-07-29T00:35:32;1.70;;;1.15;;
39044;SDS011;52192;52.002;5.956;2023-07-29T00:37:59;1.45;;;1.33;;
39044;SDS011;52192;52.002;5.956;2023-07-29T00:40:25;3.40;;;1.35;;
39044;SDS011;52192;52.002;5.956;2023-07-29T00:42:54;1.65;;;0.90;;
39044;SDS011;52192;52.002;5.956;2023-07-29T00:45:20;1.83;;;1.50;;
39044;SDS011;52192;52.002;5.956;2023-07-29T00:47:46;1.38;;;0.90;;
39044;SDS011;52192;52.002;5.956;2023-07-29T00:50:12;1.80;;;1.50;;
39044;SDS011;52192;52.002;5.956;2023-07-29T00:52:39;1.73;;;1.08;;
39044;SDS011;52192;52.002;5.956;2023-07-29T00:55:06;1.00;;;0.80;;
39044;SDS011;52192;52.002;5.956;2023-07-29T00:57:32;0.95;;;0.75;;
39044;SDS011;52192;52.002;5.956;2023-07-29T00:59:58;1.02;;;0.70;;
39044;SDS011;52192;52.002;5.956;2023-07-29T01:02:25;0.73;;;0.73;;
39044;SDS011;52192;52.002;5.956;2023-07-29T01:04:52;1.35;;;1.25;;
39044;SDS011;52192;52.002;5.956;2023-07-29T01:07:21;0.80;;;0.70;;
39044;SDS011;52192;52.002;5.956;2023-07-29T01:10:02;2.15;;;1.00;;
39044;SDS011;52192;52.002;5.956;2023-07-29T01:15:39;1.75;;;1.02;;
39044;SDS011;52192;52.002;5.956;2023-07-29T01:18:29;1.40;;;0.95;;
39044;SDS011;52192;52.002;5.956;2023-07-29T01:20:58;0.90;;;0.85;;
39044;SDS011;52192;52.002;5.956;2023-07-29T01:23:31;0.60;;;0.60;;
39044;SDS011;52192;52.002;5.956;2023-07-29T01:25:57;0.88;;;0.77;;
39044;SDS011;52192;52.002;5.956;2023-07-29T01:28:23;1.33;;;0.82;;
39044;SDS011;52192;52.002;5.956;2023-07-29T01:30:50;1.10;;;0.60;;
39044;SDS011;52192;52.002;5.956;2023-07-29T01:33:20;0.50;;;0.50;;
39044;SDS011;52192;52.002;5.956;2023-07-29T01:35:57;0.95;;;0.80;;
39044;SDS011;52192;52.002;5.956;2023-07-29T01:38:35;1.33;;;1.23;;
39044;SDS011;52192;52.002;5.956;2023-07-29T01:41:03;1.20;;;1.05;;
39044;SDS011;52192;52.002;5.956;2023-07-29T01:43:32;0.77;;;0.63;;
39044;SDS011;52192;52.002;5.956;2023-07-29T01:45:58;2.15;;;0.55;;
39044;SDS011;52192;52.002;5.956;2023-07-29T01:48:26;0.82;;;0.60;;
39044;SDS011;52192;52.002;5.956;2023-07-29T01:50:53;1.30;;;1.17;;
39044;SDS011;52192;52.002;5.956;2023-07-29T01:53:19;0.70;;;0.70;;
39044;SDS011;52192;52.002;5.956;2023-07-29T01:55:45;1.58;;;0.88;;
39044;SDS011;52192;52.002;5.956;2023-07-29T01:58:11;0.65;;;0.52;;
39044;SDS011;52192;52.002;5.956;2023-07-29T02:00:36;0.68;;;0.65;;
39044;SDS011;52192;52.002;5.956;2023-07-29T02:03:02;1.15;;;0.70;;
39044;SDS011;52192;52.002;5.956;2023-07-29T02:05:28;0.75;;;0.75;;
39044;SDS011;52192;52.002;5.956;2023-07-29T02:07:54;1.38;;;0.90;;
39044;SDS011;52192;52.002;5.956;2023-07-29T02:10:19;0.98;;;0.80;;
39044;SDS011;52192;52.002;5.956;2023-07-29T02:12:45;0.98;;;0.85;;
39044;SDS011;52192;52.002;5.956;2023-07-29T02:15:11;1.20;;;0.70;;
39044;SDS011;52192;52.002;5.956;2023-07-29T02:17:36;1.08;;;0.98;;
39044;SDS011;52192;52.002;5.956;2023-07-29T02:20:03;1.27;;;0.75;;
39044;SDS011;52192;52.002;5.956;2023-07-29T02:22:29;1.05;;;0.68;;
39044;SDS011;52192;52.002;5.956;2023-07-29T02:24:55;1.30;;;1.00;;
39044;SDS011;52192;52.002;5.956;2023-07-29T02:27:20;0.95;;;0.88;;
39044;SDS011;52192;52.002;5.956;2023-07-29T02:29:46;2.15;;;0.80;;
39044;SDS011;52192;52.002;5.956;2023-07-29T02:32:12;1.83;;;0.70;;
39044;SDS011;52192;52.002;5.956;2023-07-29T02:34:38;0.75;;;0.75;;
39044;SDS011;52192;52.002;5.956;2023-07-29T02:37:03;2.90;;;1.33;;
39044;SDS011;52192;52.002;5.956;2023-07-29T02:39:30;1.35;;;0.90;;
39044;SDS011;52192;52.002;5.956;2023-07-29T02:41:55;1.00;;;0.90;;
39044;SDS011;52192;52.002;5.956;2023-07-29T02:44:23;0.40;;;0.40;;
39044;SDS011;52192;52.002;5.956;2023-07-29T02:46:49;0.57;;;0.57;;
39044;SDS011;52192;52.002;5.956;2023-07-29T02:49:14;0.80;;;0.80;;
39044;SDS011;52192;52.002;5.956;2023-07-29T02:51:40;0.85;;;0.77;;
39044;SDS011;52192;52.002;5.956;2023-07-29T02:54:06;0.85;;;0.82;;
39044;SDS011;52192;52.002;5.956;2023-07-29T02:56:31;1.25;;;0.80;;
39044;SDS011;52192;52.002;5.956;2023-07-29T02:58:57;1.77;;;1.50;;
39044;SDS011;52192;52.002;5.956;2023-07-29T03:01:23;2.83;;;1.27;;
39044;SDS011;52192;52.002;5.956;2023-07-29T03:03:50;2.42;;;1.27;;
39044;SDS011;52192;52.002;5.956;2023-07-29T03:06:16;1.33;;;1.10;;
39044;SDS011;52192;52.002;5.956;2023-07-29T03:08:41;2.00;;;1.20;;
39044;SDS011;52192;52.002;5.956;2023-07-29T03:11:08;1.95;;;1.40;;
39044;SDS011;52192;52.002;5.956;2023-07-29T03:13:35;2.47;;;1.33;;
39044;SDS011;52192;52.002;5.956;2023-07-29T03:16:05;1.30;;;0.88;;
39044;SDS011;52192;52.002;5.956;2023-07-29T03:18:30;1.10;;;1.00;;
39044;SDS011;52192;52.002;5.956;2023-07-29T03:20:56;2.58;;;1.35;;
39044;SDS011;52192;52.002;5.956;2023-07-29T03:23:22;2.08;;;1.42;;
39044;SDS011;52192;52.002;5.956;2023-07-29T03:25:48;1.60;;;0.90;;
39044;SDS011;52192;52.002;5.956;2023-07-29T03:28:16;2.53;;;1.63;;
39044;SDS011;52192;52.002;5.956;2023-07-29T03:30:42;2.88;;;1.63;;
39044;SDS011;52192;52.002;5.956;2023-07-29T03:33:07;1.80;;;1.13;;
39044;SDS011;52192;52.002;5.956;2023-07-29T03:35:33;2.22;;;1.52;;
39044;SDS011;52192;52.002;5.956;2023-07-29T03:37:58;1.55;;;1.10;;
39044;SDS011;52192;52.002;5.956;2023-07-29T03:40:24;1.65;;;1.30;;
39044;SDS011;52192;52.002;5.956;2023-07-29T03:42:50;2.03;;;1.40;;
39044;SDS011;52192;52.002;5.956;2023-07-29T03:45:15;1.73;;;1.25;;
39044;SDS011;52192;52.002;5.956;2023-07-29T03:47:41;2.55;;;1.98;;
39044;SDS011;52192;52.002;5.956;2023-07-29T03:50:07;1.70;;;1.45;;
39044;SDS011;52192;52.002;5.956;2023-07-29T03:52:33;1.30;;;1.20;;
39044;SDS011;52192;52.002;5.956;2023-07-29T03:54:59;2.40;;;1.77;;
39044;SDS011;52192;52.002;5.956;2023-07-29T03:57:24;1.30;;;1.20;;
39044;SDS011;52192;52.002;5.956;2023-07-29T03:59:50;1.00;;;0.90;;
39044;SDS011;52192;52.002;5.956;2023-07-29T04:02:16;1.80;;;1.13;;
39044;SDS011;52192;52.002;5.956;2023-07-29T04:04:41;1.45;;;1.13;;
39044;SDS011;52192;52.002;5.956;2023-07-29T04:07:09;1.40;;;0.98;;
39044;SDS011;52192;52.002;5.956;2023-07-29T04:09:34;4.25;;;1.35;;
39044;SDS011;52192;52.002;5.956;2023-07-29T04:12:00;1.17;;;0.80;;
39044;SDS011;52192;52.002;5.956;2023-07-29T04:14:26;1.05;;;0.85;;
39044;SDS011;52192;52.002;5.956;2023-07-29T04:16:52;1.33;;;0.93;;
39044;SDS011;52192;52.002;5.956;2023-07-29T04:19:17;1.45;;;0.90;;
39044;SDS011;52192;52.002;5.956;2023-07-29T04:21:43;2.70;;;1.50;;
39044;SDS011;52192;52.002;5.956;2023-07-29T04:24:09;1.48;;;1.05;;
39044;SDS011;52192;52.002;5.956;2023-07-29T04:26:34;2.03;;;0.95;;
39044;SDS011;52192;52.002;5.956;2023-07-29T04:29:00;0.90;;;0.90;;
39044;SDS011;52192;52.002;5.956;2023-07-29T04:31:26;1.77;;;1.25;;
39044;SDS011;52192;52.002;5.956;2023-07-29T04:33:54;1.02;;;0.90;;
39044;SDS011;52192;52.002;5.956;2023-07-29T04:36:20;0.57;;;0.57;;
39044;SDS011;52192;52.002;5.956;2023-07-29T04:38:46;3.17;;;1.45;;
39044;SDS011;52192;52.002;5.956;2023-07-29T04:41:11;1.02;;;0.90;;
39044;SDS011;52192;52.002;5.956;2023-07-29T04:43:37;1.25;;;0.93;;
39044;SDS011;52192;52.002;5.956;2023-07-29T04:46:05;0.40;;;0.40;;
39044;SDS011;52192;52.002;5.956;2023-07-29T04:48:32;1.10;;;0.70;;
39044;SDS011;52192;52.002;5.956;2023-07-29T04:50:58;0.98;;;0.77;;
39044;SDS011;52192;52.002;5.956;2023-07-29T04:53:24;1.10;;;0.60;;
39044;SDS011;52192;52.002;5.956;2023-07-29T04:55:49;0.98;;;0.60;;
39044;SDS011;52192;52.002;5.956;2023-07-29T04:58:15;2.28;;;0.68;;
39044;SDS011;52192;52.002;5.956;2023-07-29T05:00:41;0.70;;;0.70;;
39044;SDS011;52192;52.002;5.956;2023-07-29T05:03:06;0.63;;;0.63;;
39044;SDS011;52192;52.002;5.956;2023-07-29T05:05:32;2.10;;;0.55;;
39044;SDS011;52192;52.002;5.956;2023-07-29T05:07:58;1.45;;;0.90;;
39044;SDS011;52192;52.002;5.956;2023-07-29T05:10:23;1.92;;;1.00;;
39044;SDS011;52192;52.002;5.956;2023-07-29T05:12:49;0.60;;;0.60;;
39044;SDS011;52192;52.002;5.956;2023-07-29T05:15:15;0.68;;;0.60;;
39044;SDS011;52192;52.002;5.956;2023-07-29T05:17:41;0.77;;;0.75;;
39044;SDS011;52192;52.002;5.956;2023-07-29T05:20:06;1.17;;;0.93;;
39044;SDS011;52192;52.002;5.956;2023-07-29T05:22:33;1.98;;;0.95;;
39044;SDS011;52192;52.002;5.956;2023-07-29T05:24:58;1.83;;;0.70;;
39044;SDS011;52192;52.002;5.956;2023-07-29T05:27:24;1.70;;;0.90;;
39044;SDS011;52192;52.002;5.956;2023-07-29T05:29:50;0.45;;;0.45;;
39044;SDS011;52192;52.002;5.956;2023-07-29T05:32:15;2.05;;;1.02;;
39044;SDS011;52192;52.002;5.956;2023-07-29T05:34:41;0.77;;;0.70;;
39044;SDS011;52192;52.002;5.956;2023-07-29T05:37:07;0.63;;;0.60;;
39044;SDS011;52192;52.002;5.956;2023-07-29T05:39:32;1.48;;;0.77;;
39044;SDS011;52192;52.002;5.956;2023-07-29T05:41:58;1.13;;;0.80;;
39044;SDS011;52192;52.002;5.956;2023-07-29T05:44:27;0.75;;;0.60;;
39044;SDS011;52192;52.002;5.956;2023-07-29T05:46:53;0.63;;;0.63;;
39044;SDS011;52192;52.002;5.956;2023-07-29T05:49:19;0.60;;;0.60;;
39044;SDS011;52192;52.002;5.956;2023-07-29T05:51:44;0.80;;;0.80;;
39044;SDS011;52192;52.002;5.956;2023-07-29T05:54:10;1.00;;;0.90;;
39044;SDS011;52192;52.002;5.956;2023-07-29T05:56:35;1.17;;;0.93;;
39044;SDS011;52192;52.002;5.956;2023-07-29T05:59:01;0.98;;;0.80;;
39044;SDS011;52192;52.002;5.956;2023-07-29T06:01:27;1.55;;;0.77;;
39044;SDS011;52192;52.002;5.956;2023-07-29T06:03:52;0.70;;;0.70;;
39044;SDS011;52192;52.002;5.956;2023-07-29T06:06:18;1.30;;;1.13;;
39044;SDS011;52192;52.002;5.956;2023-07-29T06:08:44;0.90;;;0.82;;
39044;SDS011;52192;52.002;5.956;2023-07-29T06:11:09;1.17;;;0.90;;
39044;SDS011;52192;52.002;5.956;2023-07-29T06:13:35;1.00;;;0.80;;
39044;SDS011;52192;52.002;5.956;2023-07-29T06:16:00;1.05;;;0.88;;
39044;SDS011;52192;52.002;5.956;2023-07-29T06:18:26;1.25;;;1.00;;
39044;SDS011;52192;52.002;5.956;2023-07-29T06:20:52;1.13;;;1.00;;
39044;SDS011;52192;52.002;5.956;2023-07-29T06:23:17;2.67;;;1.10;;
39044;SDS011;52192;52.002;5.956;2023-07-29T06:25:43;0.93;;;0.80;;
39044;SDS011;52192;52.002;5.956;2023-07-29T06:28:09;2.40;;;1.13;;
39044;SDS011;52192;52.002;5.956;2023-07-29T06:30:35;1.20;;;1.10;;
39044;SDS011;52192;52.002;5.956;2023-07-29T06:33:01;2.47;;;1.70;;
39044;SDS011;52192;52.002;5.956;2023-07-29T06:35:28;1.33;;;1.23;;
39044;SDS011;52192;52.002;5.956;2023-07-29T06:37:54;1.80;;;1.02;;
39044;SDS011;52192;52.002;5.956;2023-07-29T06:40:20;1.08;;;0.90;;
39044;SDS011;52192;52.002;5.956;2023-07-29T06:42:45;3.17;;;1.65;;
39044;SDS011;52192;52.002;5.956;2023-07-29T06:45:11;1.65;;;1.23;;
39044;SDS011;52192;52.002;5.956;2023-07-29T06:47:37;1.42;;;1.10;;
39044;SDS011;52192;52.002;5.956;2023-07-29T06:50:03;1.50;;;1.08;;
39044;SDS011;52192;52.002;5.956;2023-07-29T06:52:29;1.27;;;1.00;;
39044;SDS011;52192;52.002;5.956;2023-07-29T06:54:55;1.45;;;0.98;;
39044;SDS011;52192;52.002;5.956;2023-07-29T06:57:20;2.60;;;1.67;;
39044;SDS011;52192;52.002;5.956;2023-07-29T06:59:46;1.17;;;1.08;;
39044;SDS011;52192;52.002;5.956;2023-07-29T07:02:12;3.05;;;1.05;;
39044;SDS011;52192;52.002;5.956;2023-07-29T07:04:37;2.58;;;1.02;;
39044;SDS011;52192;52.002;5.956;2023-07-29T07:07:03;1.05;;;0.93;;
39044;SDS011;52192;52.002;5.956;2023-07-29T07:09:29;2.47;;;1.27;;
39044;SDS011;52192;52.002;5.956;2023-07-29T07:11:54;2.40;;;1.10;;
39044;SDS011;52192;52.002;5.956;2023-07-29T07:14:20;1.73;;;1.17;;
39044;SDS011;52192;52.002;5.956;2023-07-29T07:16:46;1.75;;;1.20;;
39044;SDS011;52192;52.002;5.956;2023-07-29T07:19:11;2.08;;;1.30;;
39044;SDS011;52192;52.002;5.956;2023-07-29T07:21:37;0.90;;;0.85;;
39044;SDS011;52192;52.002;5.956;2023-07-29T07:24:03;2.70;;;0.98;;
39044;SDS011;52192;52.002;5.956;2023-07-29T07:26:28;1.67;;;1.25;;
39044;SDS011;52192;52.002;5.956;2023-07-29T07:28:54;1.92;;;1.00;;
39044;SDS011;52192;52.002;5.956;2023-07-29T07:31:19;1.65;;;1.20;;
39044;SDS011;52192;52.002;5.956;2023-07-29T07:33:45;1.83;;;1.60;;
39044;SDS011;52192;52.002;5.956;2023-07-29T07:36:11;5.60;;;2.00;;
39044;SDS011;52192;52.002;5.956;2023-07-29T07:38:36;1.40;;;1.08;;
39044;SDS011;52192;52.002;5.956;2023-07-29T07:41:02;1.88;;;1.13;;
39044;SDS011;52192;52.002;5.956;2023-07-29T07:43:28;2.63;;;1.73;;
39044;SDS011;52192;52.002;5.956;2023-07-29T07:45:57;1.83;;;1.48;;
39044;SDS011;52192;52.002;5.956;2023-07-29T07:48:24;1.20;;;1.10;;
39044;SDS011;52192;52.002;5.956;2023-07-29T07:50:50;2.15;;;1.70;;
39044;SDS011;52192;52.002;5.956;2023-07-29T07:53:16;2.45;;;1.50;;
39044;SDS011;52192;52.002;5.956;2023-07-29T07:55:42;2.30;;;1.60;;
39044;SDS011;52192;52.002;5.956;2023-07-29T07:58:07;1.90;;;1.55;;
39044;SDS011;52192;52.002;5.956;2023-07-29T08:00:33;1.35;;;1.25;;
39044;SDS011;52192;52.002;5.956;2023-07-29T08:02:59;1.55;;;1.33;;
39044;SDS011;52192;52.002;5.956;2023-07-29T08:05:24;1.65;;;1.23;;
39044;SDS011;52192;52.002;5.956;2023-07-29T08:07:50;3.42;;;1.27;;
39044;SDS011;52192;52.002;5.956;2023-07-29T08:10:16;8.85;;;2.08;;
39044;SDS011;52192;52.002;5.956;2023-07-29T08:12:41;2.60;;;1.90;;
39044;SDS011;52192;52.002;5.956;2023-07-29T08:15:07;2.30;;;1.58;;
39044;SDS011;52192;52.002;5.956;2023-07-29T08:17:33;1.42;;;0.95;;
39044;SDS011;52192;52.002;5.956;2023-07-29T08:19:59;1.98;;;1.45;;
39044;SDS011;52192;52.002;5.956;2023-07-29T08:22:24;2.22;;;1.55;;
39044;SDS011;52192;52.002;5.956;2023-07-29T08:24:50;1.45;;;1.25;;
39044;SDS011;52192;52.002;5.956;2023-07-29T08:27:15;1.15;;;0.93;;
39044;SDS011;52192;52.002;5.956;2023-07-29T08:29:41;1.70;;;1.50;;
39044;SDS011;52192;52.002;5.956;2023-07-29T08:32:07;1.60;;;1.50;;
39044;SDS011;52192;52.002;5.956;2023-07-29T08:34:32;1.23;;;1.08;;
39044;SDS011;52192;52.002;5.956;2023-07-29T08:36:58;1.20;;;1.10;;
39044;SDS011;52192;52.002;5.956;2023-07-29T08:39:25;0.70;;;0.70;;
39044;SDS011;52192;52.002;5.956;2023-07-29T08:41:55;1.20;;;1.10;;
39044;SDS011;52192;52.002;5.956;2023-07-29T08:44:43;1.23;;;1.15;;
39044;SDS011;52192;52.002;5.956;2023-07-29T08:47:10;1.08;;;1.05;;
39044;SDS011;52192;52.002;5.956;2023-07-29T08:49:38;1.30;;;1.10;;
39044;SDS011;52192;52.002;5.956;2023-07-29T08:52:04;2.15;;;1.83;;
39044;SDS011;52192;52.002;5.956;2023-07-29T08:54:31;0.90;;;0.90;;
39044;SDS011;52192;52.002;5.956;2023-07-29T08:56:57;3.70;;;1.17;;
39044;SDS011;52192;52.002;5.956;2023-07-29T08:59:23;2.30;;;1.00;;
39044;SDS011;52192;52.002;5.956;2023-07-29T09:01:50;1.33;;;1.17;;
39044;SDS011;52192;52.002;5.956;2023-07-29T09:04:20;1.27;;;1.00;;
39044;SDS011;52192;52.002;5.956;2023-07-29T09:06:46;1.42;;;1.10;;
39044;SDS011;52192;52.002;5.956;2023-07-29T09:09:13;1.23;;;1.10;;
39044;SDS011;52192;52.002;5.956;2023-07-29T09:11:38;0.70;;;0.70;;
39044;SDS011;52192;52.002;5.956;2023-07-29T09:14:04;1.00;;;0.90;;
39044;SDS011;52192;52.002;5.956;2023-07-29T09:16:30;1.80;;;1.17;;
39044;SDS011;52192;52.002;5.956;2023-07-29T09:18:56;1.33;;;0.95;;
39044;SDS011;52192;52.002;5.956;2023-07-29T09:21:26;0.88;;;0.80;;
39044;SDS011;52192;52.002;5.956;2023-07-29T09:23:53;0.75;;;0.73;;
39044;SDS011;52192;52.002;5.956;2023-07-29T09:26:23;0.70;;;0.70;;
39044;SDS011;52192;52.002;5.956;2023-07-29T09:28:53;0.70;;;0.70;;
39044;SDS011;52192;52.002;5.956;2023-07-29T09:31:21;0.70;;;0.70;;
39044;SDS011;52192;52.002;5.956;2023-07-29T09:33:48;0.70;;;0.70;;
39044;SDS011;52192;52.002;5.956;2023-07-29T09:36:14;1.00;;;0.90;;
39044;SDS011;52192;52.002;5.956;2023-07-29T09:38:40;1.05;;;0.95;;
39044;SDS011;52192;52.002;5.956;2023-07-29T09:41:06;1.60;;;0.85;;
39044;SDS011;52192;52.002;5.956;2023-07-29T09:43:33;1.30;;;0.70;;
39044;SDS011;52192;52.002;5.956;2023-07-29T09:46:03;1.75;;;0.65;;
39044;SDS011;52192;52.002;5.956;2023-07-29T09:48:36;0.93;;;0.77;;
39044;SDS011;52192;52.002;5.956;2023-07-29T09:51:10;1.20;;;1.10;;
39044;SDS011;52192;52.002;5.956;2023-07-29T09:53:40;1.70;;;0.75;;
39044;SDS011;52192;52.002;5.956;2023-07-29T09:56:11;0.90;;;0.90;;
39044;SDS011;52192;52.002;5.956;2023-07-29T09:58:38;0.80;;;0.60;;
39044;SDS011;52192;52.002;5.956;2023-07-29T10:01:05;3.58;;;0.70;;
39044;SDS011;52192;52.002;5.956;2023-07-29T10:03:31;1.08;;;0.90;;
39044;SDS011;52192;52.002;5.956;2023-07-29T10:06:02;4.00;;;0.85;;
39044;SDS011;52192;52.002;5.956;2023-07-29T10:08:31;1.48;;;0.90;;
39044;SDS011;52192;52.002;5.956;2023-07-29T10:11:00;0.70;;;0.70;;
39044;SDS011;52192;52.002;5.956;2023-07-29T10:13:27;0.90;;;0.90;;
39044;SDS011;52192;52.002;5.956;2023-07-29T10:15:53;0.60;;;0.57;;
39044;SDS011;52192;52.002;5.956;2023-07-29T10:18:21;2.58;;;0.93;;
39044;SDS011;52192;52.002;5.956;2023-07-29T10:20:49;2.00;;;0.90;;
39044;SDS011;52192;52.002;5.956;2023-07-29T10:23:17;1.05;;;0.80;;
39044;SDS011;52192;52.002;5.956;2023-07-29T10:25:46;0.80;;;0.80;;
39044;SDS011;52192;52.002;5.956;2023-07-29T10:28:15;0.70;;;0.70;;
39044;SDS011;52192;52.002;5.956;2023-07-29T10:30:43;1.00;;;0.88;;
39044;SDS011;52192;52.002;5.956;2023-07-29T10:33:09;0.52;;;0.50;;
39044;SDS011;52192;52.002;5.956;2023-07-29T10:35:35;0.40;;;0.40;;
39044;SDS011;52192;52.002;5.956;2023-07-29T10:38:02;0.70;;;0.65;;
39044;SDS011;52192;52.002;5.956;2023-07-29T10:40:51;1.70;;;0.73;;
39044;SDS011;52192;52.002;5.956;2023-07-29T10:43:19;0.52;;;0.52;;
39044;SDS011;52192;52.002;5.956;2023-07-29T10:46:15;0.43;;;0.43;;
39044;SDS011;52192;52.002;5.956;2023-07-29T10:51:35;0.52;;;0.52;;
39044;SDS011;52192;52.002;5.956;2023-07-29T10:54:12;0.60;;;0.60;;
39044;SDS011;52192;52.002;5.956;2023-07-29T10:56:42;0.82;;;0.82;;
39044;SDS011;52192;52.002;5.956;2023-07-29T11:01:38;0.73;;;0.70;;
39044;SDS011;52192;52.002;5.956;2023-07-29T11:17:57;0.98;;;0.98;;
39044;SDS011;52192;52.002;5.956;2023-07-29T11:20:26;1.00;;;0.90;;
39044;SDS011;52192;52.002;5.956;2023-07-29T11:22:54;2.85;;;1.02;;
39044;SDS011;52192;52.002;5.956;2023-07-29T11:25:21;0.80;;;0.80;;
39044;SDS011;52192;52.002;5.956;2023-07-29T11:27:48;0.95;;;0.80;;
39044;SDS011;52192;52.002;5.956;2023-07-29T11:30:16;0.73;;;0.73;;
39044;SDS011;52192;52.002;5.956;2023-07-29T11:32:42;0.75;;;0.68;;
39044;SDS011;52192;52.002;5.956;2023-07-29T11:35:10;0.65;;;0.65;;
39044;SDS011;52192;52.002;5.956;2023-07-29T11:37:41;0.60;;;0.60;;
39044;SDS011;52192;52.002;5.956;2023-07-29T11:40:12;1.13;;;1.05;;
39044;SDS011;52192;52.002;5.956;2023-07-29T11:42:42;1.05;;;0.95;;
39044;SDS011;52192;52.002;5.956;2023-07-29T11:45:09;1.10;;;0.70;;
39044;SDS011;52192;52.002;5.956;2023-07-29T11:47:35;0.60;;;0.60;;
39044;SDS011;52192;52.002;5.956;2023-07-29T11:50:05;0.63;;;0.60;;
39044;SDS011;52192;52.002;5.956;2023-07-29T11:52:34;1.17;;;0.77;;
39044;SDS011;52192;52.002;5.956;2023-07-29T11:55:01;0.70;;;0.70;;
39044;SDS011;52192;52.002;5.956;2023-07-29T11:57:28;1.30;;;1.00;;
39044;SDS011;52192;52.002;5.956;2023-07-29T12:00:04;0.60;;;0.60;;
39044;SDS011;52192;52.002;5.956;2023-07-29T12:02:32;0.50;;;0.50;;
39044;SDS011;52192;52.002;5.956;2023-07-29T12:05:00;0.80;;;0.80;;
39044;SDS011;52192;52.002;5.956;2023-07-29T12:07:27;0.80;;;0.80;;
39044;SDS011;52192;52.002;5.956;2023-07-29T12:09:53;0.60;;;0.60;;
39044;SDS011;52192;52.002;5.956;2023-07-29T12:12:19;0.57;;;0.57;;
39044;SDS011;52192;52.002;5.956;2023-07-29T12:14:48;0.82;;;0.55;;
39044;SDS011;52192;52.002;5.956;2023-07-29T12:17:14;0.55;;;0.45;;
39044;SDS011;52192;52.002;5.956;2023-07-29T12:19:40;0.73;;;0.50;;
39044;SDS011;52192;52.002;5.956;2023-07-29T12:22:07;0.40;;;0.40;;
39044;SDS011;52192;52.002;5.956;2023-07-29T12:24:38;0.60;;;0.60;;
39044;SDS011;52192;52.002;5.956;2023-07-29T12:27:06;0.60;;;0.60;;
39044;SDS011;52192;52.002;5.956;2023-07-29T12:32:11;0.57;;;0.57;;
39044;SDS011;52192;52.002;5.956;2023-07-29T12:34:38;1.02;;;0.50;;
39044;SDS011;52192;52.002;5.956;2023-07-29T12:37:04;0.77;;;0.55;;
39044;SDS011;52192;52.002;5.956;2023-07-29T12:39:32;0.70;;;0.70;;
39044;SDS011;52192;52.002;5.956;2023-07-29T12:41:59;0.65;;;0.57;;
39044;SDS011;52192;52.002;5.956;2023-07-29T12:44:33;0.85;;;0.50;;
39044;SDS011;52192;52.002;5.956;2023-07-29T12:47:03;0.45;;;0.40;;
39044;SDS011;52192;52.002;5.956;2023-07-29T12:49:30;0.45;;;0.45;;
39044;SDS011;52192;52.002;5.956;2023-07-29T12:51:56;0.60;;;0.60;;
39044;SDS011;52192;52.002;5.956;2023-07-29T12:54:23;0.52;;;0.50;;
39044;SDS011;52192;52.002;5.956;2023-07-29T12:56:48;0.50;;;0.50;;
39044;SDS011;52192;52.002;5.956;2023-07-29T12:59:14;0.38;;;0.38;;
39044;SDS011;52192;52.002;5.956;2023-07-29T13:01:40;0.30;;;0.30;;
39044;SDS011;52192;52.002;5.956;2023-07-29T13:04:06;0.60;;;0.60;;
39044;SDS011;52192;52.002;5.956;2023-07-29T13:06:31;0.50;;;0.50;;
39044;SDS011;52192;52.002;5.956;2023-07-29T13:08:57;1.55;;;0.60;;
39044;SDS011;52192;52.002;5.956;2023-07-29T13:11:23;0.63;;;0.63;;
39044;SDS011;52192;52.002;5.956;2023-07-29T13:13:49;0.50;;;0.50;;
39044;SDS011;52192;52.002;5.956;2023-07-29T13:16:15;0.60;;;0.60;;
39044;SDS011;52192;52.002;5.956;2023-07-29T13:18:40;1.25;;;0.70;;
39044;SDS011;52192;52.002;5.956;2023-07-29T13:21:08;0.65;;;0.65;;
39044;SDS011;52192;52.002;5.956;2023-07-29T13:23:33;0.77;;;0.60;;
39044;SDS011;52192;52.002;5.956;2023-07-29T13:25:59;1.65;;;0.90;;
39044;SDS011;52192;52.002;5.956;2023-07-29T13:28:25;0.63;;;0.63;;
39044;SDS011;52192;52.002;5.956;2023-07-29T13:30:51;0.82;;;0.82;;
39044;SDS011;52192;52.002;5.956;2023-07-29T13:33:16;0.88;;;0.70;;
39044;SDS011;52192;52.002;5.956;2023-07-29T13:35:42;0.75;;;0.75;;
39044;SDS011;52192;52.002;5.956;2023-07-29T13:38:08;1.10;;;0.98;;
39044;SDS011;52192;52.002;5.956;2023-07-29T13:40:34;0.77;;;0.77;;
39044;SDS011;52192;52.002;5.956;2023-07-29T13:42:59;0.80;;;0.80;;
39044;SDS011;52192;52.002;5.956;2023-07-29T13:45:25;0.70;;;0.70;;
39044;SDS011;52192;52.002;5.956;2023-07-29T13:47:51;1.10;;;1.00;;
39044;SDS011;52192;52.002;5.956;2023-07-29T13:50:17;1.88;;;1.00;;
39044;SDS011;52192;52.002;5.956;2023-07-29T13:52:43;1.20;;;0.75;;
39044;SDS011;52192;52.002;5.956;2023-07-29T13:55:09;0.90;;;0.88;;
39044;SDS011;52192;52.002;5.956;2023-07-29T13:57:36;1.05;;;0.90;;
39044;SDS011;52192;52.002;5.956;2023-07-29T14:00:03;1.15;;;1.02;;
39044;SDS011;52192;52.002;5.956;2023-07-29T14:02:30;0.82;;;0.75;;
39044;SDS011;52192;52.002;5.956;2023-07-29T14:04:56;1.60;;;1.02;;
39044;SDS011;52192;52.002;5.956;2023-07-29T14:07:22;1.15;;;0.85;;
39044;SDS011;52192;52.002;5.956;2023-07-29T14:09:47;2.25;;;1.27;;
39044;SDS011;52192;52.002;5.956;2023-07-29T14:12:13;0.90;;;0.88;;
39044;SDS011;52192;52.002;5.956;2023-07-29T14:14:40;0.82;;;0.75;;
39044;SDS011;52192;52.002;5.956;2023-07-29T14:17:07;1.00;;;0.90;;
39044;SDS011;52192;52.002;5.956;2023-07-29T14:19:36;0.50;;;0.50;;
39044;SDS011;52192;52.002;5.956;2023-07-29T14:22:02;1.20;;;0.80;;
39044;SDS011;52192;52.002;5.956;2023-07-29T14:24:28;2.28;;;1.15;;
39044;SDS011;52192;52.002;5.956;2023-07-29T14:26:54;1.17;;;0.90;;
39044;SDS011;52192;52.002;5.956;2023-07-29T14:29:19;0.80;;;0.80;;
39044;SDS011;52192;52.002;5.956;2023-07-29T14:31:45;1.25;;;1.15;;
39044;SDS011;52192;52.002;5.956;2023-07-29T14:34:11;1.48;;;1.00;;
39044;SDS011;52192;52.002;5.956;2023-07-29T14:36:36;0.90;;;0.90;;
39044;SDS011;52192;52.002;5.956;2023-07-29T14:39:02;1.15;;;0.80;;
39044;SDS011;52192;52.002;5.956;2023-07-29T14:41:28;0.60;;;0.60;;
39044;SDS011;52192;52.002;5.956;2023-07-29T14:43:54;3.80;;;0.93;;
39044;SDS011;52192;52.002;5.956;2023-07-29T14:46:20;0.93;;;0.93;;
39044;SDS011;52192;52.002;5.956;2023-07-29T14:48:46;0.63;;;0.60;;
39044;SDS011;52192;52.002;5.956;2023-07-29T14:51:12;0.77;;;0.73;;
39044;SDS011;52192;52.002;5.956;2023-07-29T14:53:38;0.77;;;0.77;;
39044;SDS011;52192;52.002;5.956;2023-07-29T14:56:04;0.70;;;0.70;;
39044;SDS011;52192;52.002;5.956;2023-07-29T14:58:29;0.85;;;0.82;;
39044;SDS011;52192;52.002;5.956;2023-07-29T15:00:55;4.85;;;1.05;;
39044;SDS011;52192;52.002;5.956;2023-07-29T15:03:21;0.93;;;0.90;;
39044;SDS011;52192;52.002;5.956;2023-07-29T15:05:47;1.17;;;1.08;;
39044;SDS011;52192;52.002;5.956;2023-07-29T15:08:13;0.70;;;0.70;;
39044;SDS011;52192;52.002;5.956;2023-07-29T15:10:38;0.88;;;0.80;;